Flight Track Log - Related Links

Times and Time Zones

All times are in EDT time to prevent confusion due to time zone crossing. See the SWA3943 flight status page for this flight to view local times or setup timezone preferences in your user account.

Time Position Orientation Groundspeed Altitude Reporting Facility
EDT Latitude Longitude Course Direction KTS MPH feet Rate Location/Type
Thu 05:59:25 PM 32.8667 -96.8833 344° North 173 199 1,900  Level Dallas / Fort Worth TRACON
Thu 06:00:25 PM 32.9167 -96.9000 344° North 237 273 4,200 2,450 Climbing Dallas / Fort Worth TRACON
Thu 06:01:25 PM 32.9667 -96.8333 48° Northeast 303 349 6,800 2,200 Climbing Dallas / Fort Worth TRACON
Thu 06:03:55 PM 32.9122 -96.5869 105° East 337 388 11,900 2,314 Climbing Fort Worth Center
Thu 06:04:55 PM 32.8861 -96.4511 103° East 368 423 14,900 2,150 Climbing Fort Worth Center
Thu 06:05:55 PM 32.8683 -96.3350 100° East 385 443 16,200 1,950 Climbing Fort Worth Center
Thu 06:06:55 PM 32.8669 -96.1842 91° East 405 466 18,800 2,300 Climbing Fort Worth Center
Thu 06:07:55 PM 32.8700 -96.0606 88° East 405 466 20,800 1,700 Climbing Fort Worth Center
Thu 06:08:55 PM 32.8744 -95.9044 88° East 419 482 22,200 1,500 Climbing Fort Worth Center
Thu 06:09:55 PM 32.8728 -95.7711 91° East 441 507 23,800 1,400 Climbing Fort Worth Center
Thu 06:10:55 PM 32.8811 -95.6075 86° East 441 507 25,000 1,300 Climbing Fort Worth Center
Thu 06:11:55 PM 32.8828 -95.4517 89° East 453 521 26,400 1,400 Climbing Fort Worth Center
Thu 06:12:55 PM 32.8678 -95.2939 96° East 463 533 27,800 1,100 Climbing Fort Worth Center
Thu 06:13:55 PM 32.8444 -95.1533 101° East 473 544 28,600 800 Climbing Fort Worth Center
Thu 06:14:55 PM 32.8247 -94.9931 98° East 484 557 29,400 1,250 Climbing Fort Worth Center
Thu 06:15:55 PM 32.8047 -94.8306 98° East 489 563 31,100 1,300 Climbing Fort Worth Center
Thu 06:16:55 PM 32.8203 -94.6719 83° East 472 543 32,000 800 Climbing Fort Worth Center
Thu 06:17:55 PM 32.8481 -94.5178 78° East 477 549 32,700 800 Climbing Fort Worth Center
Thu 06:18:55 PM 32.8736 -94.3611 79° East 482 555 33,600 1,050 Climbing Fort Worth Center
Thu 06:19:55 PM 32.9028 -94.1869 79° East 491 565 34,800 700 Climbing Fort Worth Center
Thu 06:20:55 PM 32.9278 -94.0325 79° East 484 557 35,000 100 Climbing Fort Worth Center
Thu 06:21:55 PM 32.9508 -93.8833 80° East 473 544 35,000  Level Fort Worth Center
Thu 06:22:55 PM 32.9756 -93.7289 79° East 468 539 35,000  Level Fort Worth Center
Thu 06:23:55 PM 32.9983 -93.5792 80° East 463 533 35,000  Level Fort Worth Center
Thu 06:24:55 PM 33.0250 -93.4294 78° East 463 533 35,000  Level Fort Worth Center
Thu 06:25:55 PM 33.0472 -93.2747 80° East 463 533 35,000  Level Fort Worth Center
Thu 06:26:55 PM 33.0711 -93.1200 80° East 468 539 35,000  Level Fort Worth Center
Thu 06:27:55 PM 33.0950 -92.9653 80° East 473 544 35,000  Level Fort Worth Center
Thu 06:28:55 PM 33.1186 -92.8078 80° East 473 544 35,000  Level Fort Worth Center
Thu 06:29:55 PM 33.1419 -92.6553 80° East 473 544 35,000  Level Fort Worth Center
Thu 06:30:55 PM 33.1653 -92.5025 80° East 468 539 35,000  Level Fort Worth Center
Thu 06:32:44 PM 33.2028 -92.2292 81° East 466 536 35,000  Level Memphis Center
Thu 06:33:44 PM 33.2258 -92.0808 79° East 461 531 35,000  Level Memphis Center
Thu 06:34:44 PM 33.2422 -91.9444 82° East 461 531 35,000  Level Memphis Center
Thu 06:35:44 PM 33.2628 -91.7908 81° East 456 525 35,000  Level Memphis Center
Thu 06:36:44 PM 33.2811 -91.6394 82° East 462 532 35,000  Level Memphis Center
Thu 06:37:44 PM 33.3036 -91.4883 80° East 462 532 35,000  Level Memphis Center
Thu 06:38:44 PM 33.3258 -91.3294 80° East 467 537 35,000  Level Memphis Center
Thu 06:39:44 PM 33.3456 -91.1753 81° East 467 537 35,000  Level Memphis Center
Thu 06:40:44 PM 33.3653 -91.0214 81° East 467 537 35,000  Level Memphis Center
Thu 06:41:44 PM 33.3869 -90.8622 81° East 467 537 35,000  Level Memphis Center
Thu 06:42:44 PM 33.4083 -90.7056 81° East 472 543 35,000  Level Memphis Center
Thu 06:43:44 PM 33.4294 -90.5514 81° East 467 537 35,000  Level Memphis Center
Thu 06:44:44 PM 33.4483 -90.3944 82° East 467 537 35,000  Level Memphis Center
Thu 06:45:44 PM 33.4650 -90.2403 83° East 467 537 35,000  Level Memphis Center
Thu 06:46:44 PM 33.4669 -90.0858 89° East 462 532 35,000 -150 Level Memphis Center
Thu 06:47:44 PM 33.4706 -89.9339 88° East 457 526 34,700 -500 Descending Memphis Center
Thu 06:48:44 PM 33.4722 -89.7894 89° East 446 513 34,000 -350 Descending Memphis Center
Thu 06:49:44 PM 33.4756 -89.6450 88° East 440 506 34,000 -700 Level Memphis Center
Thu 06:50:44 PM 33.4767 -89.4981 89° East 435 501 32,600 -1,500 Descending Memphis Center
Thu 06:51:44 PM 33.4797 -89.3486 89° East 441 507 31,000 -1,000 Descending Memphis Center
Thu 06:52:44 PM 33.4806 -89.1992 90° East 441 507 30,600 -2,200 Descending Memphis Center
Thu 06:53:44 PM 33.4833 -89.0522 89° East 441 507 26,600 -2,926 Descending Memphis Center
Thu 06:54:45 PM 33.4839 -88.9050 90° East 441 507 24,700 -2,444 Descending Memphis Center
Thu 06:55:59 PM 33.4836 -88.7183 90° East 427 491 21,100 -2,500 Descending Memphis Center
Thu 06:56:45 PM 33.4864 -88.6261 88° East 425 489 19,700 -1,672 Descending Memphis Center
Thu 06:57:00 PM 33.4836 -88.5714 93° East 415 478 19,400 -712 Descending Memphis Center
Thu 06:57:44 PM 33.4908 -88.4892 84° East 413 475 19,000 -393 Descending Memphis Center
Thu 06:58:01 PM 33.4942 -88.4342 86° East 429 494 19,000 -300 Level Memphis Center
Thu 06:58:44 PM 33.5072 -88.3442 80° East 420 483 18,700 -700 Descending Memphis Center
Thu 06:59:01 PM 33.5125 -88.2892 83° East 440 506 18,300 -1,500 Descending Memphis Center
Thu 06:59:44 PM 33.5233 -88.1844 83° East 434 499 17,200 -1,279 Descending Memphis Center
Thu 07:00:02 PM 33.5311 -88.1517 74° East 430 495 17,000 -900 Descending Memphis Center
Thu 07:00:44 PM 33.5375 -88.0494 86° East 427 491 16,300 -1,000 Descending Memphis Center
Thu 07:01:44 PM 33.5539 -87.9144 82° East 416 479 15,300 -1,350 Descending Memphis Center
Thu 07:02:44 PM 33.5719 -87.7792 81° East 410 472 13,600 -1,800 Descending Memphis Center
Thu 07:03:44 PM 33.5839 -87.6517 84° East 405 466 11,700 -1,289 Descending Memphis Center
Thu 07:04:45 PM 33.6000 -87.5292 81° East 384 442 11,000 -900 Descending Memphis Center
Thu 07:05:44 PM 33.5975 -87.4244 92° East 312 359 9,900 -1,059 Descending Memphis Center
Thu 07:06:27 PM 33.5867 -87.3603 101° East 331 381 9,200 -1,049 Descending Atlanta Center
Thu 07:07:27 PM 33.5683 -87.2625 103° East 310 357 8,100 -1,381 Descending Atlanta Center
Thu 07:08:33 PM 33.5464 -87.1494 103° East 291 335 6,300 -1,450 Descending Atlanta Center
Thu 07:09:27 PM 33.5250 -87.0789 110° East 289 333 5,200 -1,537 Descending Atlanta Center
Thu 07:10:34 PM 33.4939 -86.9831 111° Southeast 274 315 3,200 -1,279 Descending Atlanta Center
Thu 07:11:29 PM 33.4811 -86.9106 102° East 268 308 2,600 -478 Descending Atlanta Center
Thu 07:12:27 PM 33.5075 -86.8489 63° Northeast 231 266 2,300 -508 Descending Atlanta Center
Thu 07:13:27 PM 33.5256 -86.7897 70° East 183 211 1,600 -700 Descending Atlanta Center
Thu 07:15:00 PM 33.5500 -86.7500 140° Southeast  Level FlightAware Approximate
Thu 07:22:00 PM 33.5639 -86.7523 140° Southeast  Level Estimated

Login

Don't have an account? Register now (free) for customized features, flight alerts, and more!